sensor_id;sensor_type;location;lat;lon;timestamp;pressure;altitude;pressure_sealevel;temperature;humidity
66396;BME280;53207;51.378;-1.342;2023-02-28T00:00:24;101909.76;;;18.03;32.21
66396;BME280;53207;51.378;-1.342;2023-02-28T00:02:51;101915.22;;;18.06;32.17
66396;BME280;53207;51.378;-1.342;2023-02-28T00:05:20;101913.48;;;18.32;32.15
66396;BME280;53207;51.378;-1.342;2023-02-28T00:07:48;101913.18;;;18.27;32.24
66396;BME280;53207;51.378;-1.342;2023-02-28T00:10:17;101910.41;;;18.18;32.59
66396;BME280;53207;51.378;-1.342;2023-02-28T00:12:45;101909.84;;;17.87;32.70
66396;BME280;53207;51.378;-1.342;2023-02-28T00:15:12;101917.95;;;17.81;32.81
66396;BME280;53207;51.378;-1.342;2023-02-28T00:17:40;101916.74;;;17.79;33.06
66396;BME280;53207;51.378;-1.342;2023-02-28T00:20:09;101919.07;;;17.80;33.03
66396;BME280;53207;51.378;-1.342;2023-02-28T00:22:37;101922.75;;;17.57;33.06
66396;BME280;53207;51.378;-1.342;2023-02-28T00:25:05;101923.24;;;17.70;33.17
66396;BME280;53207;51.378;-1.342;2023-02-28T00:27:32;101922.56;;;17.72;33.11
66396;BME280;53207;51.378;-1.342;2023-02-28T00:30:00;101921.39;;;17.38;33.23
66396;BME280;53207;51.378;-1.342;2023-02-28T00:32:27;101927.00;;;17.45;33.14
66396;BME280;53207;51.378;-1.342;2023-02-28T00:34:59;101928.26;;;17.53;33.28
66396;BME280;53207;51.378;-1.342;2023-02-28T00:37:27;101930.55;;;17.51;33.29
66396;BME280;53207;51.378;-1.342;2023-02-28T00:39:54;101934.19;;;17.40;33.40
66396;BME280;53207;51.378;-1.342;2023-02-28T00:42:21;101933.70;;;17.30;33.23
66396;BME280;53207;51.378;-1.342;2023-02-28T00:44:49;101934.35;;;17.47;33.28
66396;BME280;53207;51.378;-1.342;2023-02-28T00:47:16;101931.09;;;17.00;33.55
66396;BME280;53207;51.378;-1.342;2023-02-28T00:49:43;101936.29;;;17.19;33.58
66396;BME280;53207;51.378;-1.342;2023-02-28T00:52:11;101932.40;;;17.25;33.49
66396;BME280;53207;51.378;-1.342;2023-02-28T00:54:38;101933.62;;;17.24;33.47
66396;BME280;53207;51.378;-1.342;2023-02-28T00:57:05;101940.12;;;17.16;33.55
66396;BME280;53207;51.378;-1.342;2023-02-28T00:59:33;101935.91;;;17.10;33.60
66396;BME280;53207;51.378;-1.342;2023-02-28T01:02:00;101941.81;;;17.03;33.67
66396;BME280;53207;51.378;-1.342;2023-02-28T01:04:27;101939.18;;;17.02;33.65
66396;BME280;53207;51.378;-1.342;2023-02-28T01:06:55;101936.50;;;16.89;33.54
66396;BME280;53207;51.378;-1.342;2023-02-28T01:09:22;101938.62;;;16.86;33.52
66396;BME280;53207;51.378;-1.342;2023-02-28T01:11:49;101945.34;;;17.06;33.55
66396;BME280;53207;51.378;-1.342;2023-02-28T01:14:17;101941.71;;;17.02;33.58
66396;BME280;53207;51.378;-1.342;2023-02-28T01:16:45;101940.23;;;16.96;33.61
66396;BME280;53207;51.378;-1.342;2023-02-28T01:19:12;101941.09;;;16.89;33.68
66396;BME280;53207;51.378;-1.342;2023-02-28T01:21:40;101941.25;;;17.01;33.53
66396;BME280;53207;51.378;-1.342;2023-02-28T01:24:07;101939.46;;;16.97;33.55
66396;BME280;53207;51.378;-1.342;2023-02-28T01:26:34;101941.38;;;16.97;33.56
66396;BME280;53207;51.378;-1.342;2023-02-28T01:29:02;101943.37;;;16.85;33.66
66396;BME280;53207;51.378;-1.342;2023-02-28T01:31:29;101948.90;;;16.75;33.78
66396;BME280;53207;51.378;-1.342;2023-02-28T01:33:56;101942.36;;;16.86;33.63
66396;BME280;53207;51.378;-1.342;2023-02-28T01:36:24;101944.32;;;16.66;33.86
66396;BME280;53207;51.378;-1.342;2023-02-28T01:38:52;101943.97;;;16.69;33.82
66396;BME280;53207;51.378;-1.342;2023-02-28T01:41:22;101946.12;;;16.64;33.85
66396;BME280;53207;51.378;-1.342;2023-02-28T01:43:54;101943.77;;;16.72;33.73
66396;BME280;53207;51.378;-1.342;2023-02-28T01:46:22;101942.19;;;16.93;33.45
66396;BME280;53207;51.378;-1.342;2023-02-28T01:48:53;101944.31;;;17.29;33.60
66396;BME280;53207;51.378;-1.342;2023-02-28T01:51:26;101940.67;;;16.63;33.75
66396;BME280;53207;51.378;-1.342;2023-02-28T01:54:00;101938.77;;;16.69;33.71
66396;BME280;53207;51.378;-1.342;2023-02-28T01:56:33;101936.51;;;16.62;33.79
66396;BME280;53207;51.378;-1.342;2023-02-28T01:59:03;101928.67;;;16.78;33.84
66396;BME280;53207;51.378;-1.342;2023-02-28T02:01:31;101924.78;;;16.86;33.73
66396;BME280;53207;51.378;-1.342;2023-02-28T02:04:01;101924.38;;;16.63;33.95
66396;BME280;53207;51.378;-1.342;2023-02-28T02:06:30;101924.63;;;16.45;33.89
66396;BME280;53207;51.378;-1.342;2023-02-28T02:09:00;101927.12;;;16.79;33.74
66396;BME280;53207;51.378;-1.342;2023-02-28T02:11:28;101930.39;;;16.66;33.65
66396;BME280;53207;51.378;-1.342;2023-02-28T02:14:09;101933.99;;;16.53;33.77
66396;BME280;53207;51.378;-1.342;2023-02-28T02:16:48;101934.70;;;16.62;33.65
66396;BME280;53207;51.378;-1.342;2023-02-28T02:19:36;101927.74;;;16.83;33.63
66396;BME280;53207;51.378;-1.342;2023-02-28T02:23:28;101929.78;;;16.21;33.86
66396;BME280;53207;51.378;-1.342;2023-02-28T02:26:03;101929.41;;;16.82;33.96
66396;BME280;53207;51.378;-1.342;2023-02-28T02:28:53;101926.51;;;16.56;33.90
66396;BME280;53207;51.378;-1.342;2023-02-28T02:31:34;101927.19;;;16.60;33.84
66396;BME280;53207;51.378;-1.342;2023-02-28T02:34:20;101924.71;;;16.32;33.90
66396;BME280;53207;51.378;-1.342;2023-02-28T02:36:53;101924.84;;;16.38;33.83
66396;BME280;53207;51.378;-1.342;2023-02-28T02:39:31;101926.11;;;16.61;33.80
66396;BME280;53207;51.378;-1.342;2023-02-28T02:42:04;101924.04;;;16.66;33.69
66396;BME280;53207;51.378;-1.342;2023-02-28T02:44:40;101921.87;;;16.18;34.02
66396;BME280;53207;51.378;-1.342;2023-02-28T02:47:11;101922.19;;;16.42;33.98
66396;BME280;53207;51.378;-1.342;2023-02-28T02:49:42;101926.34;;;16.53;33.83
66396;BME280;53207;51.378;-1.342;2023-02-28T02:52:15;101925.85;;;16.43;33.89
66396;BME280;53207;51.378;-1.342;2023-02-28T02:54:45;101929.47;;;16.13;33.99
66396;BME280;53207;51.378;-1.342;2023-02-28T02:57:18;101930.04;;;16.21;33.87
66396;BME280;53207;51.378;-1.342;2023-02-28T02:59:47;101930.58;;;16.29;34.01
66396;BME280;53207;51.378;-1.342;2023-02-28T03:02:17;101929.01;;;16.72;33.78
66396;BME280;53207;51.378;-1.342;2023-02-28T03:04:50;101929.77;;;16.24;34.06
66396;BME280;53207;51.378;-1.342;2023-02-28T03:07:19;101927.06;;;16.57;33.97
66396;BME280;53207;51.378;-1.342;2023-02-28T03:09:51;101926.21;;;16.29;33.95
66396;BME280;53207;51.378;-1.342;2023-02-28T03:12:19;101924.22;;;16.25;33.95
66396;BME280;53207;51.378;-1.342;2023-02-28T03:14:56;101926.78;;;16.26;33.95
66396;BME280;53207;51.378;-1.342;2023-02-28T03:17:38;101924.79;;;16.44;33.74
66396;BME280;53207;51.378;-1.342;2023-02-28T03:20:17;101923.97;;;16.25;33.90
66396;BME280;53207;51.378;-1.342;2023-02-28T03:22:52;101925.45;;;16.16;34.01
66396;BME280;53207;51.378;-1.342;2023-02-28T03:25:32;101924.83;;;16.23;33.90
66396;BME280;53207;51.378;-1.342;2023-02-28T03:28:08;101924.87;;;16.09;34.06
66396;BME280;53207;51.378;-1.342;2023-02-28T03:30:42;101923.47;;;16.17;33.95
66396;BME280;53207;51.378;-1.342;2023-02-28T03:33:15;101922.12;;;16.33;33.44
66396;BME280;53207;51.378;-1.342;2023-02-28T03:35:49;101930.39;;;16.16;33.89
66396;BME280;53207;51.378;-1.342;2023-02-28T03:38:22;101925.22;;;16.21;33.81
66396;BME280;53207;51.378;-1.342;2023-02-28T03:40:57;101923.69;;;16.24;34.09
66396;BME280;53207;51.378;-1.342;2023-02-28T03:43:27;101923.02;;;16.31;33.97
66396;BME280;53207;51.378;-1.342;2023-02-28T03:45:56;101914.30;;;16.35;33.92
66396;BME280;53207;51.378;-1.342;2023-02-28T03:48:31;101915.37;;;16.64;33.56
66396;BME280;53207;51.378;-1.342;2023-02-28T03:51:00;101921.78;;;16.36;33.87
66396;BME280;53207;51.378;-1.342;2023-02-28T03:53:32;101921.46;;;15.95;33.99
66396;BME280;53207;51.378;-1.342;2023-02-28T03:56:05;101931.67;;;16.33;33.82
66396;BME280;53207;51.378;-1.342;2023-02-28T03:58:37;101934.66;;;16.32;33.83
66396;BME280;53207;51.378;-1.342;2023-02-28T04:01:09;101936.49;;;16.27;33.86
66396;BME280;53207;51.378;-1.342;2023-02-28T04:03:39;101937.09;;;16.18;33.94
66396;BME280;53207;51.378;-1.342;2023-02-28T04:06:08;101936.48;;;16.40;33.64
66396;BME280;53207;51.378;-1.342;2023-02-28T04:08:40;101935.54;;;16.08;34.02
66396;BME280;53207;51.378;-1.342;2023-02-28T04:11:17;101934.86;;;16.19;33.86
66396;BME280;53207;51.378;-1.342;2023-02-28T04:13:45;101933.72;;;16.09;33.98
66396;BME280;53207;51.378;-1.342;2023-02-28T04:16:13;101924.78;;;16.07;33.96
66396;BME280;53207;51.378;-1.342;2023-02-28T04:18:40;101924.70;;;15.97;34.07
66396;BME280;53207;51.378;-1.342;2023-02-28T04:21:08;101928.48;;;15.73;33.98
66396;BME280;53207;51.378;-1.342;2023-02-28T04:23:36;101931.56;;;16.17;33.78
66396;BME280;53207;51.378;-1.342;2023-02-28T04:26:04;101933.59;;;15.79;33.88
66396;BME280;53207;51.378;-1.342;2023-02-28T04:28:31;101930.85;;;16.01;33.89
66396;BME280;53207;51.378;-1.342;2023-02-28T04:30:59;101936.46;;;15.74;33.87
66396;BME280;53207;51.378;-1.342;2023-02-28T04:33:26;101935.03;;;16.00;33.90
66396;BME280;53207;51.378;-1.342;2023-02-28T04:36:03;101931.40;;;15.83;34.06
66396;BME280;53207;51.378;-1.342;2023-02-28T04:38:33;101922.82;;;15.67;34.24
66396;BME280;53207;51.378;-1.342;2023-02-28T04:41:01;101921.18;;;15.77;34.08
66396;BME280;53207;51.378;-1.342;2023-02-28T04:43:28;101924.51;;;15.81;34.01
66396;BME280;53207;51.378;-1.342;2023-02-28T04:45:57;101934.22;;;15.90;33.87
66396;BME280;53207;51.378;-1.342;2023-02-28T04:48:27;101947.83;;;15.76;34.01
66396;BME280;53207;51.378;-1.342;2023-02-28T04:50:54;101951.94;;;15.70;34.08
66396;BME280;53207;51.378;-1.342;2023-02-28T04:53:21;101946.63;;;15.74;34.02
66396;BME280;53207;51.378;-1.342;2023-02-28T04:55:49;101954.14;;;15.64;34.10
66396;BME280;53207;51.378;-1.342;2023-02-28T04:58:16;101958.86;;;15.77;33.91
66396;BME280;53207;51.378;-1.342;2023-02-28T05:00:43;101956.47;;;15.80;33.87
66396;BME280;53207;51.378;-1.342;2023-02-28T05:03:11;101953.90;;;15.71;33.93
66396;BME280;53207;51.378;-1.342;2023-02-28T05:05:38;101951.69;;;15.60;34.05
66396;BME280;53207;51.378;-1.342;2023-02-28T05:08:06;101952.28;;;15.25;34.11
66396;BME280;53207;51.378;-1.342;2023-02-28T05:10:33;101960.56;;;15.66;33.95
66396;BME280;53207;51.378;-1.342;2023-02-28T05:13:00;101959.92;;;15.50;34.08
66396;BME280;53207;51.378;-1.342;2023-02-28T05:15:28;101960.79;;;15.77;34.01
66396;BME280;53207;51.378;-1.342;2023-02-28T05:17:55;101961.61;;;15.48;34.08
66396;BME280;53207;51.378;-1.342;2023-02-28T05:20:22;101965.56;;;15.46;34.09
66396;BME280;53207;51.378;-1.342;2023-02-28T05:22:50;101968.56;;;15.54;33.94
66396;BME280;53207;51.378;-1.342;2023-02-28T05:25:19;101976.57;;;15.56;33.91
66396;BME280;53207;51.378;-1.342;2023-02-28T05:27:46;101978.90;;;15.41;34.07
66396;BME280;53207;51.378;-1.342;2023-02-28T05:30:14;101972.52;;;15.52;33.88
66396;BME280;53207;51.378;-1.342;2023-02-28T05:32:41;101974.99;;;15.43;33.98
66396;BME280;53207;51.378;-1.342;2023-02-28T05:35:10;101982.01;;;15.37;34.03
66396;BME280;53207;51.378;-1.342;2023-02-28T05:37:39;101980.24;;;15.74;33.83
66396;BME280;53207;51.378;-1.342;2023-02-28T05:40:07;101984.70;;;15.22;34.16
66396;BME280;53207;51.378;-1.342;2023-02-28T05:42:34;101985.23;;;15.32;34.02
66396;BME280;53207;51.378;-1.342;2023-02-28T05:45:01;101988.56;;;15.37;33.94
66396;BME280;53207;51.378;-1.342;2023-02-28T05:47:28;101985.87;;;15.35;33.94
66396;BME280;53207;51.378;-1.342;2023-02-28T05:49:56;101979.12;;;15.28;34.00
66396;BME280;53207;51.378;-1.342;2023-02-28T05:52:23;101975.35;;;15.32;33.91
66396;BME280;53207;51.378;-1.342;2023-02-28T05:54:51;101972.61;;;15.74;33.97
66396;BME280;53207;51.378;-1.342;2023-02-28T05:57:18;101976.20;;;15.32;33.86
66396;BME280;53207;51.378;-1.342;2023-02-28T05:59:45;101975.84;;;15.50;33.87
66396;BME280;53207;51.378;-1.342;2023-02-28T06:02:15;101981.97;;;15.25;33.90
66396;BME280;53207;51.378;-1.342;2023-02-28T06:04:43;101982.23;;;15.78;33.80
66396;BME280;53207;51.378;-1.342;2023-02-28T06:07:11;101981.33;;;15.41;33.89
66396;BME280;53207;51.378;-1.342;2023-02-28T06:09:38;101979.46;;;15.39;33.88
66396;BME280;53207;51.378;-1.342;2023-02-28T06:12:06;101981.18;;;15.27;33.75
66396;BME280;53207;51.378;-1.342;2023-02-28T06:14:34;101984.22;;;15.23;33.76
66396;BME280;53207;51.378;-1.342;2023-02-28T06:17:02;101983.42;;;15.18;33.82
66396;BME280;53207;51.378;-1.342;2023-02-28T06:19:30;101990.75;;;15.54;33.91
66396;BME280;53207;51.378;-1.342;2023-02-28T06:21:57;101991.62;;;15.29;33.88
66396;BME280;53207;51.378;-1.342;2023-02-28T06:24:25;101996.40;;;14.89;34.08
66396;BME280;53207;51.378;-1.342;2023-02-28T06:26:52;101996.83;;;15.31;33.82
66396;BME280;53207;51.378;-1.342;2023-02-28T06:29:20;101994.50;;;14.92;34.01
66396;BME280;53207;51.378;-1.342;2023-02-28T06:31:47;101993.91;;;14.92;33.98
66396;BME280;53207;51.378;-1.342;2023-02-28T06:34:15;101995.50;;;15.48;33.88
66396;BME280;53207;51.378;-1.342;2023-02-28T06:36:43;101993.85;;;15.42;33.97
66396;BME280;53207;51.378;-1.342;2023-02-28T06:39:10;101989.92;;;14.99;33.95
66396;BME280;53207;51.378;-1.342;2023-02-28T06:41:37;101986.43;;;15.67;33.79
66396;BME280;53207;51.378;-1.342;2023-02-28T06:44:05;101983.75;;;15.87;33.55
66396;BME280;53207;51.378;-1.342;2023-02-28T06:46:41;101987.81;;;15.78;33.43
66396;BME280;53207;51.378;-1.342;2023-02-28T06:49:09;101992.25;;;15.65;33.39
66396;BME280;53207;51.378;-1.342;2023-02-28T06:51:38;101996.33;;;15.82;33.29
66396;BME280;53207;51.378;-1.342;2023-02-28T06:54:06;101996.73;;;15.92;33.32
66396;BME280;53207;51.378;-1.342;2023-02-28T06:56:33;101999.86;;;16.06;33.26
66396;BME280;53207;51.378;-1.342;2023-02-28T06:59:00;101998.47;;;16.17;33.23
66396;BME280;53207;51.378;-1.342;2023-02-28T07:01:28;101994.54;;;16.21;33.25
66396;BME280;53207;51.378;-1.342;2023-02-28T07:03:55;101994.97;;;16.31;33.20
66396;BME280;53207;51.378;-1.342;2023-02-28T07:06:23;101996.43;;;16.42;33.14
66396;BME280;53207;51.378;-1.342;2023-02-28T07:08:51;102000.67;;;16.54;33.08
66396;BME280;53207;51.378;-1.342;2023-02-28T07:11:19;102000.94;;;16.61;33.07
66396;BME280;53207;51.378;-1.342;2023-02-28T07:13:47;102002.30;;;16.72;33.01
66396;BME280;53207;51.378;-1.342;2023-02-28T07:16:14;102000.27;;;16.56;32.91
66396;BME280;53207;51.378;-1.342;2023-02-28T07:18:42;101998.51;;;16.90;32.86
66396;BME280;53207;51.378;-1.342;2023-02-28T07:21:10;102001.06;;;16.70;32.84
66396;BME280;53207;51.378;-1.342;2023-02-28T07:23:38;102005.98;;;17.03;32.80
66396;BME280;53207;51.378;-1.342;2023-02-28T07:26:07;102010.27;;;16.86;32.72
66396;BME280;53207;51.378;-1.342;2023-02-28T07:28:35;102010.35;;;17.14;32.74
66396;BME280;53207;51.378;-1.342;2023-02-28T07:31:04;102013.61;;;16.94;32.66
66396;BME280;53207;51.378;-1.342;2023-02-28T07:33:31;102009.77;;;16.95;32.67
66396;BME280;53207;51.378;-1.342;2023-02-28T07:36:00;102007.12;;;16.93;32.72
66396;BME280;53207;51.378;-1.342;2023-02-28T07:38:28;102003.46;;;16.96;32.68
66396;BME280;53207;51.378;-1.342;2023-02-28T07:40:56;102004.01;;;17.21;32.71
66396;BME280;53207;51.378;-1.342;2023-02-28T07:43:23;102008.80;;;16.96;32.70
66396;BME280;53207;51.378;-1.342;2023-02-28T07:45:50;102012.99;;;16.95;32.72
66396;BME280;53207;51.378;-1.342;2023-02-28T07:48:18;102013.48;;;17.26;32.69
66396;BME280;53207;51.378;-1.342;2023-02-28T07:50:45;102014.53;;;16.96;32.71
66396;BME280;53207;51.378;-1.342;2023-02-28T07:53:20;102015.78;;;16.98;32.68
66396;BME280;53207;51.378;-1.342;2023-02-28T07:55:48;102016.80;;;17.25;32.65
66396;BME280;53207;51.378;-1.342;2023-02-28T07:58:15;102016.63;;;16.89;32.74
66396;BME280;53207;51.378;-1.342;2023-02-28T08:00:42;102015.36;;;16.91;33.03
66396;BME280;53207;51.378;-1.342;2023-02-28T08:03:11;102018.20;;;16.72;32.93
66396;BME280;53207;51.378;-1.342;2023-02-28T08:05:39;102017.68;;;16.45;33.14
66396;BME280;53207;51.378;-1.342;2023-02-28T08:08:06;102017.64;;;16.37;33.24
66396;BME280;53207;51.378;-1.342;2023-02-28T08:10:34;102016.78;;;16.09;33.29
66396;BME280;53207;51.378;-1.342;2023-02-28T08:13:01;102023.21;;;16.17;33.42
66396;BME280;53207;51.378;-1.342;2023-02-28T08:15:28;102026.14;;;16.48;33.04
66396;BME280;53207;51.378;-1.342;2023-02-28T08:17:55;102026.10;;;16.30;33.25
66396;BME280;53207;51.378;-1.342;2023-02-28T08:20:23;102027.39;;;16.30;33.22
66396;BME280;53207;51.378;-1.342;2023-02-28T08:22:50;102029.86;;;16.60;33.14
66396;BME280;53207;51.378;-1.342;2023-02-28T08:25:18;102026.00;;;16.55;33.22
66396;BME280;53207;51.378;-1.342;2023-02-28T08:27:45;102025.32;;;16.26;33.26
66396;BME280;53207;51.378;-1.342;2023-02-28T08:30:14;102024.69;;;16.55;33.29
66396;BME280;53207;51.378;-1.342;2023-02-28T08:32:41;102024.27;;;16.57;33.01
66396;BME280;53207;51.378;-1.342;2023-02-28T08:35:09;102027.65;;;16.76;32.80
66396;BME280;53207;51.378;-1.342;2023-02-28T08:37:37;102027.69;;;16.76;32.80
66396;BME280;53207;51.378;-1.342;2023-02-28T08:40:05;102023.35;;;16.80;32.81
66396;BME280;53207;51.378;-1.342;2023-02-28T08:42:32;102024.49;;;16.86;32.79
66396;BME280;53207;51.378;-1.342;2023-02-28T08:44:59;102026.18;;;16.89;32.75
66396;BME280;53207;51.378;-1.342;2023-02-28T08:47:27;102026.36;;;16.96;32.74
66396;BME280;53207;51.378;-1.342;2023-02-28T08:49:54;102021.05;;;16.78;32.69
66396;BME280;53207;51.378;-1.342;2023-02-28T08:52:21;102022.61;;;16.78;32.75
66396;BME280;53207;51.378;-1.342;2023-02-28T08:54:49;102024.31;;;16.85;32.69
66396;BME280;53207;51.378;-1.342;2023-02-28T08:57:16;102025.32;;;16.84;32.72
66396;BME280;53207;51.378;-1.342;2023-02-28T08:59:43;102023.56;;;17.35;32.69
66396;BME280;53207;51.378;-1.342;2023-02-28T09:02:13;102025.48;;;17.32;32.70
66396;BME280;53207;51.378;-1.342;2023-02-28T09:04:40;102026.72;;;17.39;32.62
66396;BME280;53207;51.378;-1.342;2023-02-28T09:07:07;102026.71;;;16.84;32.93
66396;BME280;53207;51.378;-1.342;2023-02-28T09:09:35;102027.13;;;16.54;32.99
66396;BME280;53207;51.378;-1.342;2023-02-28T09:12:03;102023.56;;;16.62;33.15
66396;BME280;53207;51.378;-1.342;2023-02-28T09:14:30;102023.02;;;17.05;32.94
66396;BME280;53207;51.378;-1.342;2023-02-28T09:16:58;102021.02;;;16.71;32.97
66396;BME280;53207;51.378;-1.342;2023-02-28T09:19:25;102019.51;;;16.71;32.99
66396;BME280;53207;51.378;-1.342;2023-02-28T09:21:52;102017.42;;;16.34;33.11
66396;BME280;53207;51.378;-1.342;2023-02-28T09:24:20;102017.11;;;16.57;33.09
66396;BME280;53207;51.378;-1.342;2023-02-28T09:37:38;102012.17;;;16.57;33.26
66396;BME280;53207;51.378;-1.342;2023-02-28T09:40:08;102012.61;;;16.30;33.22
66396;BME280;53207;51.378;-1.342;2023-02-28T09:42:35;102011.27;;;16.10;33.20
66396;BME280;53207;51.378;-1.342;2023-02-28T09:45:10;102013.82;;;16.26;33.22
66396;BME280;53207;51.378;-1.342;2023-02-28T09:47:44;102011.09;;;16.30;33.17
66396;BME280;53207;51.378;-1.342;2023-02-28T09:50:18;102011.54;;;16.28;33.15
66396;BME280;53207;51.378;-1.342;2023-02-28T09:52:49;102016.63;;;16.56;33.13
66396;BME280;53207;51.378;-1.342;2023-02-28T09:55:22;102014.19;;;16.34;33.03
66396;BME280;53207;51.378;-1.342;2023-02-28T09:57:53;102019.15;;;16.14;33.21
66396;BME280;53207;51.378;-1.342;2023-02-28T10:00:27;102024.46;;;16.40;33.18
66396;BME280;53207;51.378;-1.342;2023-02-28T10:03:06;102018.38;;;16.47;32.80
66396;BME280;53207;51.378;-1.342;2023-02-28T10:05:43;102026.24;;;16.34;33.21
66396;BME280;53207;51.378;-1.342;2023-02-28T10:08:16;102020.23;;;16.08;33.18
66396;BME280;53207;51.378;-1.342;2023-02-28T10:10:48;102020.52;;;16.23;33.31
66396;BME280;53207;51.378;-1.342;2023-02-28T10:13:21;102018.46;;;15.89;33.37
66396;BME280;53207;51.378;-1.342;2023-02-28T10:15:53;102015.76;;;15.95;33.29
66396;BME280;53207;51.378;-1.342;2023-02-28T10:18:24;102006.78;;;16.31;33.17
66396;BME280;53207;51.378;-1.342;2023-02-28T10:20:53;102011.68;;;16.00;33.21
66396;BME280;53207;51.378;-1.342;2023-02-28T10:23:26;102007.32;;;16.09;33.38
66396;BME280;53207;51.378;-1.342;2023-02-28T10:25:58;102011.35;;;16.00;33.46
66396;BME280;53207;51.378;-1.342;2023-02-28T10:28:29;102009.57;;;15.74;33.44
66396;BME280;53207;51.378;-1.342;2023-02-28T10:30:57;102009.09;;;16.05;33.38
66396;BME280;53207;51.378;-1.342;2023-02-28T10:33:29;102006.36;;;16.06;33.35
66396;BME280;53207;51.378;-1.342;2023-02-28T10:35:58;102002.44;;;15.70;33.41
66396;BME280;53207;51.378;-1.342;2023-02-28T10:38:27;102001.50;;;15.71;33.38
66396;BME280;53207;51.378;-1.342;2023-02-28T10:41:05;102001.88;;;15.97;33.39
66396;BME280;53207;51.378;-1.342;2023-02-28T10:43:33;101998.72;;;15.90;33.45
66396;BME280;53207;51.378;-1.342;2023-02-28T10:46:04;101994.43;;;15.87;33.44
66396;BME280;53207;51.378;-1.342;2023-02-28T10:48:36;101990.10;;;16.14;33.37
66396;BME280;53207;51.378;-1.342;2023-02-28T10:51:06;101985.90;;;15.87;33.40
66396;BME280;53207;51.378;-1.342;2023-02-28T10:53:37;101992.17;;;15.76;33.53
66396;BME280;53207;51.378;-1.342;2023-02-28T10:56:15;101989.69;;;15.88;33.38
66396;BME280;53207;51.378;-1.342;2023-02-28T10:58:54;101984.54;;;15.56;33.40
66396;BME280;53207;51.378;-1.342;2023-02-28T11:01:23;101981.75;;;15.79;33.43
66396;BME280;53207;51.378;-1.342;2023-02-28T11:03:51;101982.30;;;15.71;33.54
66396;BME280;53207;51.378;-1.342;2023-02-28T11:06:21;101983.62;;;15.86;33.35
66396;BME280;53207;51.378;-1.342;2023-02-28T11:08:52;101984.89;;;15.70;33.49
66396;BME280;53207;51.378;-1.342;2023-02-28T11:11:22;101984.43;;;15.75;33.43
66396;BME280;53207;51.378;-1.342;2023-02-28T11:13:52;101980.84;;;15.45;33.44
66396;BME280;53207;51.378;-1.342;2023-02-28T11:16:22;101985.05;;;15.78;33.31
66396;BME280;53207;51.378;-1.342;2023-02-28T11:18:58;101984.86;;;15.59;33.55
66396;BME280;53207;51.378;-1.342;2023-02-28T11:21:27;101984.08;;;15.67;33.43
66396;BME280;53207;51.378;-1.342;2023-02-28T11:24:00;101976.93;;;15.56;33.53
66396;BME280;53207;51.378;-1.342;2023-02-28T11:26:38;101975.29;;;15.46;33.61
66396;BME280;53207;51.378;-1.342;2023-02-28T11:29:19;101972.66;;;15.50;33.54
66396;BME280;53207;51.378;-1.342;2023-02-28T11:32:09;101969.12;;;15.51;33.52
66396;BME280;53207;51.378;-1.342;2023-02-28T11:34:40;101963.19;;;15.49;33.53
66396;BME280;53207;51.378;-1.342;2023-02-28T11:37:12;101960.13;;;15.52;33.52
66396;BME280;53207;51.378;-1.342;2023-02-28T11:39:41;101957.25;;;15.38;33.66
66396;BME280;53207;51.378;-1.342;2023-02-28T11:42:22;101957.45;;;15.45;33.57
66396;BME280;53207;51.378;-1.342;2023-02-28T11:45:00;101956.27;;;15.40;33.62
66396;BME280;53207;51.378;-1.342;2023-02-28T11:47:34;101948.42;;;15.21;33.50
66396;BME280;53207;51.378;-1.342;2023-02-28T11:50:18;101950.99;;;15.46;33.48
66396;BME280;53207;51.378;-1.342;2023-02-28T11:52:52;101952.34;;;15.47;33.45
66396;BME280;53207;51.378;-1.342;2023-02-28T11:55:23;101949.76;;;15.44;33.47
66396;BME280;53207;51.378;-1.342;2023-02-28T11:58:21;101943.32;;;15.63;33.51
66396;BME280;53207;51.378;-1.342;2023-02-28T12:01:01;101944.53;;;15.36;33.54
66396;BME280;53207;51.378;-1.342;2023-02-28T12:03:37;101940.13;;;15.42;33.42
66396;BME280;53207;51.378;-1.342;2023-02-28T12:06:17;101935.70;;;15.57;33.53
66396;BME280;53207;51.378;-1.342;2023-02-28T12:08:55;101933.17;;;15.35;33.49
66396;BME280;53207;51.378;-1.342;2023-02-28T12:11:35;101935.30;;;15.52;33.28
66396;BME280;53207;51.378;-1.342;2023-02-28T12:14:28;101930.65;;;15.44;33.31
66396;BME280;53207;51.378;-1.342;2023-02-28T12:17:08;101931.54;;;15.37;33.37
66396;BME280;53207;51.378;-1.342;2023-02-28T12:19:47;101930.13;;;15.88;33.35
66396;BME280;53207;51.378;-1.342;2023-02-28T12:22:25;101926.50;;;15.34;33.40
66396;BME280;53207;51.378;-1.342;2023-02-28T12:25:13;101922.75;;;15.36;33.35
66396;BME280;53207;51.378;-1.342;2023-02-28T12:27:48;101914.69;;;15.28;33.42
66396;BME280;53207;51.378;-1.342;2023-02-28T12:30:21;101919.98;;;15.47;33.47
66396;BME280;53207;51.378;-1.342;2023-02-28T12:32:53;101916.00;;;15.45;33.45
66396;BME280;53207;51.378;-1.342;2023-02-28T12:35:26;101915.86;;;15.20;33.49
66396;BME280;53207;51.378;-1.342;2023-02-28T12:38:04;101911.24;;;15.27;33.36
66396;BME280;53207;51.378;-1.342;2023-02-28T12:40:43;101911.00;;;15.66;33.46
66396;BME280;53207;51.378;-1.342;2023-02-28T12:43:13;101909.20;;;15.60;33.52
66396;BME280;53207;51.378;-1.342;2023-02-28T12:45:46;101907.92;;;15.70;33.39
66396;BME280;53207;51.378;-1.342;2023-02-28T12:48:18;101903.35;;;15.13;33.48
66396;BME280;53207;51.378;-1.342;2023-02-28T12:50:48;101901.83;;;15.32;33.50
66396;BME280;53207;51.378;-1.342;2023-02-28T12:53:23;101900.68;;;15.10;33.49
66396;BME280;53207;51.378;-1.342;2023-02-28T12:56:02;101894.50;;;15.08;33.49
66396;BME280;53207;51.378;-1.342;2023-02-28T12:58:36;101885.13;;;15.39;33.39
66396;BME280;53207;51.378;-1.342;2023-02-28T13:01:52;101888.59;;;15.11;33.43
66396;BME280;53207;51.378;-1.342;2023-02-28T13:04:41;101879.97;;;15.32;33.42
66396;BME280;53207;51.378;-1.342;2023-02-28T13:07:31;101871.12;;;15.47;33.20
66396;BME280;53207;51.378;-1.342;2023-02-28T13:10:04;101861.23;;;15.37;33.31